BOX742 EDDP-OOMS
Flight info
| Callsign | BOX742 |
|---|---|
| Flight time | N/A |
| Altitude | 39000 |
| Route | GOLAT2N GOLAT T202 TABAT M736 RUDNO DCT LAMSI DCT LIDSI DCT RADLY/N0472F410 DCT PODET DCT KUSIB DCT TAZ DCT PETAK DCT DIMIS DCT SALUN N705 BOPIX N710 TAKRI P751 LXR M999 JDW V31 BSH L425 AMBIT DCT ASTIN DCT GOBRO L425 DEDSO R401 HAI B400 VUTAP B424 GISKA Y414 MCT |
| Aircraft | B77L/H-SDE1E2E3FGHIJ2J3J4J5M1RWXYZ/LB1D1 |
Departure
| Time | N/A |
|---|---|
| Airport | Leipzig/Halle Airport (EDDP) |
Arrival
| Time | 2026-05-04 16:58 |
|---|---|
| Airport | Muscat International Airport (OOMS) |
| Time | Latitude | Longitude | Altitude | Speed | Heading |
|---|---|---|---|---|---|
| 2026-05-04 13:40 | 26.41639 | 31.87298 | 41025 ft | 530 kts | 138° |
| 2026-05-04 13:41 | 26.39299 | 31.90469 | 41025 ft | 530 kts | 138° |
| 2026-05-04 13:41 | 26.34596 | 31.96835 | 41026 ft | 530 kts | 138° |
| 2026-05-04 13:42 | 26.27560 | 32.06346 | 41019 ft | 530 kts | 138° |
| 2026-05-04 13:42 | 26.22862 | 32.12683 | 41016 ft | 530 kts | 138° |
| 2026-05-04 13:43 | 26.18169 | 32.19007 | 41013 ft | 530 kts | 138° |
| 2026-05-04 13:43 | 26.13467 | 32.25332 | 41010 ft | 530 kts | 138° |
| 2026-05-04 13:44 | 26.08767 | 32.31648 | 41006 ft | 530 kts | 138° |
| 2026-05-04 13:44 | 26.04056 | 32.37969 | 41003 ft | 530 kts | 138° |
| 2026-05-04 13:45 | 25.99351 | 32.44272 | 41000 ft | 530 kts | 138° |
| 2026-05-04 13:45 | 25.94642 | 32.50582 | 40997 ft | 530 kts | 138° |
| 2026-05-04 13:46 | 25.89945 | 32.56881 | 40996 ft | 529 kts | 138° |
| 2026-05-04 13:46 | 25.85237 | 32.63153 | 40995 ft | 528 kts | 138° |
| 2026-05-04 13:47 | 25.80535 | 32.69407 | 40994 ft | 527 kts | 138° |
| 2026-05-04 13:47 | 25.75835 | 32.75654 | 40994 ft | 528 kts | 138° |
| 2026-05-04 13:48 | 25.71448 | 32.82231 | 40994 ft | 533 kts | 131° |
| 2026-05-04 13:48 | 25.67452 | 32.89185 | 40994 ft | 536 kts | 130° |
| 2026-05-04 13:49 | 25.63395 | 32.96128 | 40992 ft | 537 kts | 131° |
| 2026-05-04 13:49 | 25.59279 | 33.03021 | 40990 ft | 536 kts | 131° |
| 2026-05-04 13:50 | 25.55166 | 33.09895 | 40988 ft | 535 kts | 131° |
| 2026-05-04 13:50 | 25.51065 | 33.16781 | 40985 ft | 535 kts | 131° |
| 2026-05-04 13:51 | 25.46965 | 33.23651 | 40982 ft | 535 kts | 131° |
| 2026-05-04 13:51 | 25.42843 | 33.30511 | 40978 ft | 535 kts | 131° |
| 2026-05-04 13:52 | 25.36673 | 33.40735 | 40972 ft | 535 kts | 131° |
| 2026-05-04 13:53 | 25.32516 | 33.47615 | 40969 ft | 535 kts | 131° |
| 2026-05-04 13:53 | 25.28383 | 33.54444 | 40965 ft | 535 kts | 131° |
| 2026-05-04 13:54 | 25.22163 | 33.64675 | 40960 ft | 534 kts | 131° |
| 2026-05-04 13:55 | 25.16644 | 33.73737 | 40956 ft | 534 kts | 131° |
| 2026-05-04 13:55 | 25.10438 | 33.83938 | 40952 ft | 534 kts | 131° |
| 2026-05-04 13:56 | 25.06312 | 33.90749 | 40950 ft | 534 kts | 131° |
| 2026-05-04 13:57 | 25.00102 | 34.00937 | 40947 ft | 533 kts | 131° |
| 2026-05-04 13:58 | 24.91804 | 34.14500 | 40944 ft | 531 kts | 131° |
| 2026-05-04 13:58 | 24.85603 | 34.24608 | 40943 ft | 531 kts | 131° |
| 2026-05-04 13:59 | 24.81523 | 34.31246 | 40942 ft | 530 kts | 131° |
| 2026-05-04 14:00 | 24.75244 | 34.41446 | 40941 ft | 529 kts | 131° |
| 2026-05-04 14:00 | 24.69050 | 34.51486 | 40940 ft | 529 kts | 131° |
| 2026-05-04 14:01 | 24.64892 | 34.58215 | 40939 ft | 528 kts | 131° |
| 2026-05-04 14:02 | 24.58670 | 34.68265 | 40926 ft | 528 kts | 131° |
| 2026-05-04 14:02 | 24.54527 | 34.74947 | 40925 ft | 528 kts | 131° |
| 2026-05-04 14:03 | 24.50390 | 34.81610 | 40923 ft | 528 kts | 131° |
| 2026-05-04 14:03 | 24.46253 | 34.88263 | 40921 ft | 527 kts | 131° |
| 2026-05-04 14:04 | 24.40045 | 34.98230 | 40919 ft | 527 kts | 131° |
| 2026-05-04 14:04 | 24.35877 | 35.04910 | 40914 ft | 526 kts | 132° |
| 2026-05-04 14:05 | 24.29675 | 35.14835 | 40909 ft | 526 kts | 132° |
| 2026-05-04 14:06 | 24.25543 | 35.21435 | 40906 ft | 525 kts | 132° |
| 2026-05-04 14:06 | 24.21415 | 35.28021 | 40904 ft | 524 kts | 132° |
| 2026-05-04 14:07 | 24.17292 | 35.34590 | 40901 ft | 523 kts | 132° |
| 2026-05-04 14:07 | 24.13178 | 35.41162 | 40919 ft | 522 kts | 132° |
| 2026-05-04 14:08 | 24.09061 | 35.47711 | 40923 ft | 522 kts | 132° |
| 2026-05-04 14:08 | 24.04942 | 35.54235 | 40922 ft | 521 kts | 132° |
| 2026-05-04 14:09 | 23.98768 | 35.64001 | 40920 ft | 520 kts | 132° |
| 2026-05-04 14:10 | 23.92586 | 35.73766 | 40892 ft | 521 kts | 132° |
| 2026-05-04 14:10 | 23.88460 | 35.80264 | 40844 ft | 520 kts | 132° |
| 2026-05-04 14:11 | 23.84335 | 35.86752 | 40836 ft | 520 kts | 132° |
| 2026-05-04 14:11 | 23.78143 | 35.96476 | 40829 ft | 520 kts | 132° |
| 2026-05-04 14:12 | 23.74031 | 36.02976 | 40824 ft | 520 kts | 132° |
| 2026-05-04 14:13 | 23.67847 | 36.12711 | 40816 ft | 520 kts | 132° |
| 2026-05-04 14:13 | 23.63720 | 36.19182 | 40812 ft | 520 kts | 132° |
| 2026-05-04 14:14 | 23.59589 | 36.25649 | 40808 ft | 520 kts | 132° |
| 2026-05-04 14:14 | 23.53393 | 36.35332 | 40807 ft | 519 kts | 132° |
| 2026-05-04 14:15 | 23.45122 | 36.48231 | 40798 ft | 519 kts | 132° |
| 2026-05-04 14:16 | 23.38917 | 36.57886 | 40784 ft | 519 kts | 132° |
| 2026-05-04 14:17 | 23.32695 | 36.67548 | 40781 ft | 520 kts | 132° |
| 2026-05-04 14:18 | 23.26469 | 36.77198 | 40778 ft | 519 kts | 132° |
| 2026-05-04 14:19 | 23.18173 | 36.90060 | 40775 ft | 519 kts | 132° |
| 2026-05-04 14:19 | 23.14019 | 36.96473 | 40774 ft | 519 kts | 132° |
| 2026-05-04 14:20 | 23.09858 | 37.02878 | 40773 ft | 519 kts | 132° |
| 2026-05-04 14:20 | 23.05696 | 37.09277 | 40772 ft | 519 kts | 132° |
| 2026-05-04 14:21 | 22.99449 | 37.18847 | 40771 ft | 517 kts | 132° |
| 2026-05-04 14:21 | 22.95266 | 37.25195 | 40771 ft | 517 kts | 132° |
| 2026-05-04 14:22 | 22.91106 | 37.31553 | 40770 ft | 517 kts | 132° |
| 2026-05-04 14:22 | 22.86930 | 37.37899 | 40771 ft | 516 kts | 132° |
| 2026-05-04 14:23 | 22.80668 | 37.47378 | 40771 ft | 516 kts | 132° |
| 2026-05-04 14:24 | 22.76483 | 37.53708 | 40771 ft | 515 kts | 132° |
| 2026-05-04 14:24 | 22.72330 | 37.60020 | 40772 ft | 514 kts | 132° |
| 2026-05-04 14:25 | 22.68185 | 37.66339 | 40773 ft | 514 kts | 132° |
| 2026-05-04 14:25 | 22.61971 | 37.75801 | 40774 ft | 514 kts | 131° |
| 2026-05-04 14:26 | 22.58524 | 37.81044 | 40774 ft | 514 kts | 132° |
| 2026-05-04 14:26 | 22.54355 | 37.87380 | 40776 ft | 513 kts | 131° |
| 2026-05-04 14:27 | 22.50242 | 37.93632 | 40777 ft | 513 kts | 131° |
| 2026-05-04 14:27 | 22.46136 | 37.99926 | 40773 ft | 512 kts | 131° |
| 2026-05-04 14:28 | 22.41987 | 38.06228 | 40774 ft | 511 kts | 131° |
| 2026-05-04 14:28 | 22.37886 | 38.12432 | 40785 ft | 511 kts | 131° |
| 2026-05-04 14:29 | 22.29611 | 38.24933 | 40787 ft | 511 kts | 131° |
| 2026-05-04 14:30 | 22.25463 | 38.31174 | 40787 ft | 511 kts | 132° |
| 2026-05-04 14:31 | 22.19246 | 38.40506 | 40788 ft | 510 kts | 132° |
| 2026-05-04 14:32 | 22.10936 | 38.52960 | 40788 ft | 510 kts | 132° |
| 2026-05-04 14:32 | 22.06810 | 38.59170 | 40788 ft | 510 kts | 131° |
| 2026-05-04 14:33 | 22.02700 | 38.65345 | 40788 ft | 510 kts | 132° |
| 2026-05-04 14:33 | 21.98533 | 38.71581 | 40788 ft | 509 kts | 131° |
| 2026-05-04 14:34 | 21.94470 | 38.77653 | 40788 ft | 506 kts | 131° |
| 2026-05-04 14:34 | 21.90386 | 38.83750 | 40788 ft | 506 kts | 131° |
| 2026-05-04 14:35 | 21.86281 | 38.89898 | 40788 ft | 505 kts | 131° |
| 2026-05-04 14:35 | 21.82168 | 38.96018 | 40788 ft | 505 kts | 131° |
| 2026-05-04 14:36 | 21.78441 | 39.01553 | 40787 ft | 504 kts | 131° |
| 2026-05-04 14:36 | 21.74334 | 39.07648 | 40787 ft | 503 kts | 131° |
| 2026-05-04 14:37 | 21.70347 | 39.13834 | 40786 ft | 506 kts | 124° |
| 2026-05-04 14:37 | 21.67686 | 39.20878 | 40787 ft | 514 kts | 109° |
| 2026-05-04 14:38 | 21.66079 | 39.28414 | 40790 ft | 519 kts | 105° |
| 2026-05-04 14:38 | 21.64693 | 39.36025 | 40795 ft | 521 kts | 104° |
| 2026-05-04 14:39 | 21.63332 | 39.43690 | 40803 ft | 520 kts | 104° |
| 2026-05-04 14:39 | 21.61974 | 39.51314 | 40816 ft | 520 kts | 104° |
| 2026-05-04 14:40 | 21.59931 | 39.62738 | 40844 ft | 519 kts | 105° |
| 2026-05-04 14:40 | 21.58552 | 39.70420 | 40869 ft | 520 kts | 105° |
| 2026-05-04 14:41 | 21.57179 | 39.78050 | 40898 ft | 520 kts | 105° |
| 2026-05-04 14:42 | 21.54427 | 39.93285 | 40961 ft | 519 kts | 105° |
| 2026-05-04 14:42 | 21.53045 | 40.00904 | 40992 ft | 519 kts | 105° |
| 2026-05-04 14:43 | 21.51661 | 40.08512 | 41018 ft | 518 kts | 105° |
| 2026-05-04 14:43 | 21.50267 | 40.16152 | 41040 ft | 518 kts | 105° |
| 2026-05-04 14:44 | 21.48881 | 40.23734 | 41057 ft | 518 kts | 105° |
| 2026-05-04 14:44 | 21.47489 | 40.31320 | 41069 ft | 517 kts | 105° |
| 2026-05-04 14:45 | 21.46099 | 40.38886 | 41077 ft | 517 kts | 105° |
| 2026-05-04 14:45 | 21.44702 | 40.46460 | 41081 ft | 517 kts | 105° |
| 2026-05-04 14:46 | 21.43306 | 40.54015 | 41082 ft | 516 kts | 105° |
| 2026-05-04 14:46 | 21.41904 | 40.61581 | 41083 ft | 516 kts | 105° |
| 2026-05-04 14:47 | 21.40500 | 40.69138 | 41083 ft | 516 kts | 104° |
| 2026-05-04 14:47 | 21.39096 | 40.76676 | 41084 ft | 515 kts | 104° |
| 2026-05-04 14:48 | 21.37687 | 40.84220 | 41084 ft | 515 kts | 104° |
| 2026-05-04 14:48 | 21.36279 | 40.91742 | 41085 ft | 515 kts | 104° |
| 2026-05-04 14:49 | 21.34856 | 40.99321 | 41087 ft | 514 kts | 104° |
| 2026-05-04 14:49 | 21.33479 | 41.06640 | 41090 ft | 514 kts | 104° |
| 2026-05-04 14:50 | 21.32060 | 41.14157 | 41092 ft | 514 kts | 104° |
| 2026-05-04 14:50 | 21.30639 | 41.21670 | 41094 ft | 514 kts | 104° |
| 2026-05-04 14:51 | 21.29215 | 41.29181 | 41097 ft | 514 kts | 104° |
| 2026-05-04 14:51 | 21.27787 | 41.36694 | 41100 ft | 514 kts | 104° |
| 2026-05-04 14:52 | 21.26359 | 41.44185 | 41103 ft | 514 kts | 104° |
| 2026-05-04 14:52 | 21.24924 | 41.51697 | 41106 ft | 514 kts | 104° |
| 2026-05-04 14:53 | 21.23487 | 41.59197 | 41108 ft | 514 kts | 104° |
| 2026-05-04 14:53 | 21.22047 | 41.66697 | 41094 ft | 514 kts | 104° |
| 2026-05-04 14:54 | 21.20640 | 41.74007 | 41091 ft | 513 kts | 104° |
| 2026-05-04 14:54 | 21.19193 | 41.81505 | 41090 ft | 513 kts | 104° |
| 2026-05-04 14:55 | 21.17745 | 41.88993 | 41088 ft | 513 kts | 104° |
| 2026-05-04 14:55 | 21.16283 | 41.96533 | 41087 ft | 513 kts | 104° |
| 2026-05-04 14:56 | 21.14827 | 42.04019 | 41085 ft | 513 kts | 104° |
| 2026-05-04 14:56 | 21.13373 | 42.11480 | 41082 ft | 512 kts | 104° |
| 2026-05-04 14:57 | 21.11925 | 42.18894 | 41079 ft | 512 kts | 104° |
| 2026-05-04 14:57 | 21.10466 | 42.26346 | 41075 ft | 511 kts | 104° |
| 2026-05-04 14:58 | 21.09273 | 42.32425 | 41073 ft | 511 kts | 104° |
| 2026-05-04 14:58 | 21.07807 | 42.39876 | 41069 ft | 511 kts | 104° |
| 2026-05-04 14:59 | 21.06102 | 42.48523 | 41065 ft | 510 kts | 104° |
| 2026-05-04 15:00 | 21.04136 | 42.58463 | 41060 ft | 510 kts | 104° |
| 2026-05-04 15:00 | 21.02662 | 42.65897 | 41023 ft | 510 kts | 104° |
| 2026-05-04 15:01 | 21.00448 | 42.77026 | 40984 ft | 509 kts | 104° |
| 2026-05-04 15:01 | 20.98968 | 42.84445 | 40982 ft | 510 kts | 104° |
| 2026-05-04 15:02 | 20.97484 | 42.91865 | 40980 ft | 510 kts | 104° |
| 2026-05-04 15:02 | 20.96028 | 42.99131 | 40978 ft | 510 kts | 104° |
| 2026-05-04 15:03 | 20.94538 | 43.06548 | 40975 ft | 510 kts | 104° |
| 2026-05-04 15:03 | 20.93046 | 43.13955 | 40972 ft | 510 kts | 104° |
| 2026-05-04 15:04 | 20.91551 | 43.21363 | 40969 ft | 509 kts | 104° |
| 2026-05-04 15:04 | 20.90054 | 43.28765 | 40969 ft | 509 kts | 105° |
| 2026-05-04 15:05 | 20.88552 | 43.36170 | 40966 ft | 510 kts | 105° |
| 2026-05-04 15:05 | 20.87045 | 43.43587 | 40961 ft | 510 kts | 105° |
| 2026-05-04 15:06 | 20.85537 | 43.50991 | 40957 ft | 510 kts | 105° |
| 2026-05-04 15:07 | 20.83279 | 43.62044 | 40950 ft | 510 kts | 105° |
| 2026-05-04 15:07 | 20.81764 | 43.69439 | 40944 ft | 509 kts | 105° |
| 2026-05-04 15:08 | 20.80259 | 43.76768 | 40938 ft | 509 kts | 105° |
| 2026-05-04 15:08 | 20.78727 | 43.84216 | 40932 ft | 509 kts | 105° |
| 2026-05-04 15:09 | 20.77204 | 43.91601 | 40925 ft | 509 kts | 105° |
| 2026-05-04 15:09 | 20.75678 | 43.98983 | 40918 ft | 508 kts | 105° |
| 2026-05-04 15:10 | 20.73391 | 44.10021 | 40908 ft | 507 kts | 105° |
| 2026-05-04 15:11 | 20.71150 | 44.20800 | 40895 ft | 507 kts | 105° |
| 2026-05-04 15:11 | 20.69617 | 44.28153 | 40880 ft | 507 kts | 105° |
| 2026-05-04 15:12 | 20.68081 | 44.35505 | 40875 ft | 507 kts | 105° |
| 2026-05-04 15:12 | 20.66549 | 44.42828 | 40870 ft | 507 kts | 105° |
| 2026-05-04 15:13 | 20.64998 | 44.50221 | 40865 ft | 508 kts | 105° |
| 2026-05-04 15:13 | 20.63454 | 44.57573 | 40862 ft | 508 kts | 105° |
| 2026-05-04 15:14 | 20.61909 | 44.64911 | 40858 ft | 508 kts | 105° |
| 2026-05-04 15:14 | 20.60356 | 44.72275 | 40855 ft | 507 kts | 105° |
| 2026-05-04 15:15 | 20.58817 | 44.79565 | 40853 ft | 507 kts | 105° |
| 2026-05-04 15:15 | 20.57281 | 44.86841 | 40850 ft | 506 kts | 105° |
| 2026-05-04 15:16 | 20.55166 | 44.97878 | 40848 ft | 506 kts | 105° |
| 2026-05-04 15:17 | 20.52863 | 45.08914 | 40847 ft | 506 kts | 105° |
| 2026-05-04 15:17 | 20.50621 | 45.19909 | 40845 ft | 506 kts | 104° |
| 2026-05-04 15:18 | 20.49669 | 45.27349 | 40846 ft | 507 kts | 97° |
| 2026-05-04 15:19 | 20.48971 | 45.38623 | 40847 ft | 508 kts | 96° |
| 2026-05-04 15:19 | 20.48128 | 45.49715 | 40848 ft | 507 kts | 97° |
| 2026-05-04 15:20 | 20.47520 | 45.57209 | 40848 ft | 507 kts | 97° |
| 2026-05-04 15:20 | 20.46937 | 45.64689 | 40849 ft | 506 kts | 97° |
| 2026-05-04 15:21 | 20.46335 | 45.72163 | 40850 ft | 506 kts | 97° |
| 2026-05-04 15:22 | 20.45417 | 45.83354 | 40851 ft | 505 kts | 97° |
| 2026-05-04 15:22 | 20.44488 | 45.94558 | 40853 ft | 505 kts | 97° |
| 2026-05-04 15:23 | 20.43865 | 46.02017 | 40854 ft | 505 kts | 97° |
| 2026-05-04 15:23 | 20.43249 | 46.09365 | 40855 ft | 504 kts | 97° |
| 2026-05-04 15:24 | 20.41990 | 46.24250 | 40858 ft | 504 kts | 97° |
| 2026-05-04 15:25 | 20.41355 | 46.31697 | 40859 ft | 504 kts | 97° |
| 2026-05-04 15:26 | 20.40412 | 46.42842 | 40860 ft | 504 kts | 97° |
| 2026-05-04 15:26 | 20.39451 | 46.53999 | 40862 ft | 504 kts | 97° |
| 2026-05-04 15:27 | 20.38464 | 46.65218 | 40863 ft | 505 kts | 97° |
| 2026-05-04 15:28 | 20.37487 | 46.76300 | 40865 ft | 504 kts | 97° |
| 2026-05-04 15:29 | 20.36500 | 46.87269 | 40866 ft | 504 kts | 97° |
| 2026-05-04 15:30 | 20.34136 | 47.13305 | 40867 ft | 503 kts | 97° |
| 2026-05-04 15:31 | 20.33257 | 47.23182 | 40851 ft | 503 kts | 97° |
| 2026-05-04 15:32 | 20.31557 | 47.41736 | 40851 ft | 501 kts | 97° |
| 2026-05-04 15:34 | 20.29836 | 47.60249 | 40848 ft | 500 kts | 97° |
| 2026-05-04 15:34 | 20.28795 | 47.71338 | 40838 ft | 500 kts | 97° |
| 2026-05-04 15:35 | 20.27751 | 47.82386 | 40837 ft | 499 kts | 97° |
| 2026-05-04 15:36 | 20.26702 | 47.93416 | 40837 ft | 499 kts | 97° |
| 2026-05-04 15:36 | 20.25994 | 48.00813 | 40837 ft | 499 kts | 97° |
| 2026-05-04 15:37 | 20.25314 | 48.08046 | 40837 ft | 498 kts | 97° |
| 2026-05-04 15:37 | 20.24594 | 48.15523 | 40837 ft | 498 kts | 97° |
| 2026-05-04 15:38 | 20.23878 | 48.22842 | 40836 ft | 498 kts | 97° |
| 2026-05-04 15:38 | 20.23153 | 48.30229 | 40836 ft | 499 kts | 97° |
| 2026-05-04 15:39 | 20.22436 | 48.37532 | 40836 ft | 499 kts | 97° |
| 2026-05-04 15:40 | 20.21338 | 48.48594 | 40835 ft | 499 kts | 97° |
| 2026-05-04 15:40 | 20.20591 | 48.56040 | 40835 ft | 500 kts | 97° |
| 2026-05-04 15:41 | 20.19847 | 48.63418 | 40835 ft | 500 kts | 97° |
| 2026-05-04 15:41 | 20.19167 | 48.70138 | 40835 ft | 500 kts | 97° |
| 2026-05-04 15:42 | 20.18435 | 48.77493 | 40834 ft | 500 kts | 97° |
| 2026-05-04 15:42 | 20.17716 | 48.84801 | 40827 ft | 499 kts | 97° |
| 2026-05-04 15:43 | 20.16968 | 48.92248 | 40826 ft | 499 kts | 97° |
| 2026-05-04 15:43 | 20.16217 | 48.99654 | 40825 ft | 499 kts | 98° |
| 2026-05-04 15:44 | 20.15468 | 49.06989 | 40824 ft | 499 kts | 98° |
| 2026-05-04 15:44 | 20.14715 | 49.14344 | 40824 ft | 499 kts | 98° |
| 2026-05-04 15:45 | 20.13955 | 49.21728 | 40824 ft | 499 kts | 98° |
| 2026-05-04 15:45 | 20.13201 | 49.29022 | 40823 ft | 498 kts | 98° |
| 2026-05-04 15:46 | 20.12427 | 49.36490 | 40822 ft | 498 kts | 98° |
| 2026-05-04 15:46 | 20.11787 | 49.42628 | 40822 ft | 498 kts | 98° |
| 2026-05-04 15:47 | 20.10899 | 49.51122 | 40820 ft | 497 kts | 98° |
| 2026-05-04 15:47 | 20.10266 | 49.57244 | 40820 ft | 497 kts | 98° |
| 2026-05-04 15:48 | 20.09504 | 49.64553 | 40819 ft | 497 kts | 98° |
| 2026-05-04 15:48 | 20.09078 | 49.75477 | 40824 ft | 498 kts | 84° |
| 2026-05-04 15:49 | 20.10818 | 49.82782 | 40826 ft | 499 kts | 72° |
| 2026-05-04 15:49 | 20.13118 | 49.89767 | 40824 ft | 500 kts | 70° |
| 2026-05-04 15:50 | 20.15538 | 49.96704 | 40823 ft | 500 kts | 70° |
| 2026-05-04 15:50 | 20.17961 | 50.03654 | 40822 ft | 500 kts | 70° |
| 2026-05-04 15:51 | 20.20393 | 50.10646 | 40822 ft | 500 kts | 70° |
| 2026-05-04 15:51 | 20.22805 | 50.17593 | 40821 ft | 500 kts | 70° |
| 2026-05-04 15:52 | 20.25215 | 50.24543 | 40820 ft | 501 kts | 70° |
| 2026-05-04 15:52 | 20.27626 | 50.31508 | 40820 ft | 501 kts | 70° |
| 2026-05-04 15:53 | 20.30038 | 50.38488 | 40819 ft | 502 kts | 70° |
| 2026-05-04 15:53 | 20.32445 | 50.45461 | 40819 ft | 502 kts | 70° |
| 2026-05-04 15:54 | 20.34848 | 50.52436 | 40818 ft | 502 kts | 70° |
| 2026-05-04 15:54 | 20.37266 | 50.59461 | 40817 ft | 502 kts | 70° |
| 2026-05-04 15:55 | 20.39613 | 50.66294 | 40817 ft | 502 kts | 70° |
| 2026-05-04 15:55 | 20.42012 | 50.73285 | 40816 ft | 502 kts | 70° |
| 2026-05-04 15:56 | 20.44413 | 50.80291 | 40815 ft | 503 kts | 70° |
| 2026-05-04 15:56 | 20.46824 | 50.87340 | 40815 ft | 503 kts | 70° |
| 2026-05-04 15:57 | 20.49232 | 50.94390 | 40814 ft | 503 kts | 70° |
| 2026-05-04 15:57 | 20.51622 | 51.01398 | 40813 ft | 503 kts | 70° |
| 2026-05-04 15:58 | 20.54007 | 51.08400 | 40812 ft | 502 kts | 70° |
| 2026-05-04 15:58 | 20.56389 | 51.15405 | 40811 ft | 502 kts | 70° |
| 2026-05-04 15:59 | 20.58762 | 51.22393 | 40785 ft | 502 kts | 70° |
| 2026-05-04 15:59 | 20.61156 | 51.29454 | 40783 ft | 502 kts | 70° |
| 2026-05-04 16:00 | 20.63549 | 51.36521 | 40775 ft | 502 kts | 70° |
| 2026-05-04 16:00 | 20.65920 | 51.43538 | 40774 ft | 502 kts | 70° |
| 2026-05-04 16:01 | 20.68285 | 51.50545 | 40774 ft | 502 kts | 70° |
| 2026-05-04 16:01 | 20.70652 | 51.57569 | 40773 ft | 502 kts | 70° |
| 2026-05-04 16:02 | 20.73025 | 51.64619 | 40772 ft | 502 kts | 70° |
| 2026-05-04 16:03 | 20.76552 | 51.75123 | 40771 ft | 502 kts | 70° |
| 2026-05-04 16:03 | 20.78922 | 51.82193 | 40771 ft | 502 kts | 70° |
| 2026-05-04 16:04 | 20.81290 | 51.89268 | 40770 ft | 502 kts | 70° |
| 2026-05-04 16:04 | 20.84439 | 51.98692 | 40771 ft | 502 kts | 70° |
| 2026-05-04 16:05 | 20.86807 | 52.05793 | 40773 ft | 502 kts | 70° |
| 2026-05-04 16:06 | 20.90344 | 52.16418 | 40772 ft | 502 kts | 70° |
| 2026-05-04 16:07 | 20.95022 | 52.30512 | 40771 ft | 503 kts | 70° |
| 2026-05-04 16:08 | 20.99697 | 52.44638 | 40770 ft | 503 kts | 70° |
| 2026-05-04 16:09 | 21.05528 | 52.62320 | 40768 ft | 504 kts | 70° |
| 2026-05-04 16:10 | 21.10186 | 52.76496 | 40767 ft | 504 kts | 70° |
| 2026-05-04 16:11 | 21.14827 | 52.90663 | 40766 ft | 504 kts | 70° |
| 2026-05-04 16:12 | 21.21770 | 53.11945 | 40764 ft | 504 kts | 70° |
| 2026-05-04 16:13 | 21.26385 | 53.26145 | 40763 ft | 505 kts | 70° |
| 2026-05-04 16:14 | 21.31013 | 53.40434 | 40764 ft | 505 kts | 70° |
| 2026-05-04 16:16 | 21.36750 | 53.58208 | 40755 ft | 506 kts | 70° |
| 2026-05-04 16:17 | 21.42492 | 53.76071 | 40733 ft | 507 kts | 70° |
| 2026-05-04 16:18 | 21.47078 | 53.90390 | 40732 ft | 508 kts | 70° |
| 2026-05-04 16:19 | 21.52804 | 54.08336 | 40731 ft | 508 kts | 70° |
| 2026-05-04 16:20 | 21.58524 | 54.26336 | 40731 ft | 508 kts | 70° |
| 2026-05-04 16:22 | 21.64209 | 54.44300 | 40730 ft | 508 kts | 70° |
| 2026-05-04 16:23 | 21.70997 | 54.65850 | 40737 ft | 507 kts | 71° |
| 2026-05-04 16:25 | 21.77741 | 54.87369 | 40750 ft | 506 kts | 71° |
| 2026-05-04 16:26 | 21.85570 | 55.12489 | 40750 ft | 505 kts | 71° |
| 2026-05-04 16:28 | 21.91137 | 55.30439 | 40750 ft | 506 kts | 71° |
| 2026-05-04 16:29 | 21.98908 | 55.55626 | 40750 ft | 506 kts | 71° |
| 2026-05-04 16:31 | 22.04447 | 55.73674 | 40733 ft | 508 kts | 71° |
| 2026-05-04 16:32 | 22.11063 | 55.95331 | 40731 ft | 507 kts | 71° |
| 2026-05-04 16:33 | 22.15470 | 56.09820 | 40730 ft | 507 kts | 71° |
| 2026-05-04 16:34 | 22.18772 | 56.20711 | 40729 ft | 507 kts | 71° |
| 2026-05-04 16:35 | 22.25184 | 56.41941 | 40739 ft | 507 kts | 71° |
| 2026-05-04 16:36 | 22.28459 | 56.52824 | 40744 ft | 508 kts | 71° |
| 2026-05-04 16:37 | 22.31724 | 56.63706 | 40741 ft | 508 kts | 71° |
| 2026-05-04 16:38 | 22.35701 | 56.76998 | 40693 ft | 508 kts | 71° |
| 2026-05-04 16:39 | 22.41123 | 56.95189 | 40693 ft | 507 kts | 71° |
| 2026-05-04 16:40 | 22.45433 | 57.09704 | 40692 ft | 498 kts | 71° |
| 2026-05-04 16:41 | 22.47543 | 57.16831 | 39918 ft | 496 kts | 71° |
| 2026-05-04 16:41 | 22.52599 | 57.26530 | 36701 ft | 506 kts | 39° |
| 2026-05-04 16:42 | 22.61510 | 57.32736 | 33471 ft | 512 kts | 27° |
| 2026-05-04 16:43 | 22.67636 | 57.36675 | 31934 ft | 505 kts | 27° |
| 2026-05-04 16:43 | 22.73636 | 57.40552 | 29989 ft | 507 kts | 27° |
| 2026-05-04 16:43 | 22.76669 | 57.42515 | 29001 ft | 507 kts | 27° |
| 2026-05-04 16:44 | 22.88507 | 57.50191 | 26118 ft | 483 kts | 28° |
| 2026-05-04 16:45 | 22.94197 | 57.53888 | 24756 ft | 470 kts | 28° |
| 2026-05-04 16:46 | 23.02444 | 57.59252 | 22742 ft | 452 kts | 29° |
| 2026-05-04 16:46 | 23.07762 | 57.62715 | 21424 ft | 441 kts | 29° |
| 2026-05-04 16:47 | 23.12958 | 57.66102 | 20119 ft | 430 kts | 29° |
| 2026-05-04 16:47 | 23.18019 | 57.69404 | 18854 ft | 419 kts | 29° |
| 2026-05-04 16:48 | 23.25285 | 57.74133 | 16440 ft | 377 kts | 29° |
| 2026-05-04 16:48 | 23.27520 | 57.75591 | 14534 ft | 374 kts | 29° |
| 2026-05-04 16:49 | 23.32037 | 57.78547 | 10531 ft | 385 kts | 30° |
| 2026-05-04 16:49 | 23.36663 | 57.81580 | 7473 ft | 384 kts | 29° |
| 2026-05-04 16:50 | 23.41136 | 57.84510 | 7010 ft | 369 kts | 29° |
| 2026-05-04 16:50 | 23.45531 | 57.87393 | 6995 ft | 370 kts | 29° |
| 2026-05-04 16:51 | 23.50031 | 57.89973 | 6844 ft | 350 kts | 16° |
| 2026-05-04 16:51 | 23.52292 | 57.90519 | 5982 ft | 325 kts | 9° |
| 2026-05-04 16:51 | 23.56170 | 57.92766 | 3216 ft | 321 kts | 48° |
| 2026-05-04 16:52 | 23.57322 | 57.96939 | 2230 ft | 278 kts | 89° |
| 2026-05-04 16:52 | 23.57199 | 57.98995 | 2160 ft | 267 kts | 92° |
| 2026-05-04 16:53 | 23.56919 | 58.02904 | 2039 ft | 252 kts | 93° |
| 2026-05-04 16:53 | 23.57750 | 58.08262 | 1993 ft | 234 kts | 76° |
| 2026-05-04 16:54 | 23.57925 | 58.10009 | 2002 ft | 229 kts | 89° |
| 2026-05-04 16:55 | 23.58263 | 58.15974 | 1983 ft | 161 kts | 81° |
| 2026-05-04 16:55 | 23.58945 | 58.18145 | 1751 ft | 152 kts | 54° |
| 2026-05-04 16:56 | 23.59848 | 58.20208 | 1439 ft | 151 kts | 64° |
| 2026-05-04 16:56 | 23.60442 | 58.23542 | 574 ft | 149 kts | 82° |
| 2026-05-04 16:57 | 23.60547 | 58.24656 | 315 ft | 145 kts | 84° |
| 2026-05-04 16:57 | 23.60676 | 58.26696 | 65 ft | 107 kts | 73° |
| 2026-05-04 16:58 | 23.60792 | 58.28039 | 62 ft | 38 kts | 85° |
| 2026-05-04 16:58 | 23.60784 | 58.28297 | 62 ft | 31 kts | 104° |
| 2026-05-04 16:59 | 23.60660 | 58.28622 | 62 ft | 13 kts | 142° |
| 2026-05-04 17:00 | 23.60533 | 58.28096 | 62 ft | 24 kts | 265° |
| 2026-05-04 17:00 | 23.60485 | 58.27535 | 62 ft | 21 kts | 265° |
| 2026-05-04 17:01 | 23.60461 | 58.27242 | 62 ft | 14 kts | 246° |
| 2026-05-04 17:01 | 23.60146 | 58.27231 | 62 ft | 25 kts | 175° |
| 2026-05-04 17:02 | 23.59817 | 58.27261 | 62 ft | 26 kts | 176° |
| 2026-05-04 17:02 | 23.59483 | 58.27295 | 62 ft | 20 kts | 160° |
| 2026-05-04 17:03 | 23.59418 | 58.27418 | 62 ft | 20 kts | 102° |
| 2026-05-04 17:03 | 23.59317 | 58.27580 | 62 ft | 40 kts | 127° |
| 2026-05-04 17:03 | 23.59189 | 58.28219 | 62 ft | 40 kts | 54° |
| 2026-05-04 17:04 | 23.59475 | 58.28622 | 62 ft | 29 kts | 50° |
| 2026-05-04 17:04 | 23.59573 | 58.28998 | 62 ft | 24 kts | 85° |
| 2026-05-04 17:05 | 23.59603 | 58.29379 | 62 ft | 23 kts | 85° |
| 2026-05-04 17:05 | 23.59629 | 58.29690 | 62 ft | 19 kts | 84° |
| 2026-05-04 17:06 | 23.59687 | 58.29955 | 62 ft | 18 kts | 33° |
| 2026-05-04 17:06 | 23.59751 | 58.30049 | 62 ft | 9 kts | 45° |
| 2026-05-04 17:07 | 23.59854 | 58.30049 | 62 ft | 3 kts | 355° |
| 2026-05-04 17:07 | 23.59865 | 58.30048 | 62 ft | 0 kts | 355° |